Airfield :
LOGIN :

Register | Disclaimer

   EN    FR    IT 

 










Legend :    VFR   Marginal VFR   IFR   Intensive IFR   Very Intensive IFR
Visi :
Ceiling :
>= 8 km
>= 3000ft
5 to 8 km
1000 to 3000 ft
1500m to 5 km
500 to 1000 ft
800 to 1500m
200 to 500 ft
< 800m
< 200 ft
Symbols :   Thunderstorms  Fog  Heavy snow  Heavy precipitations  Wind > 20 kt
SIGMETs :     Misc.  Thunderstorms  Icing  Turbulence  Mountain Waves  Volcanic Ashes







- Airport Elevation : 1465 ft


LSMP - Payerne

CURRENT METAR :
  • 100220Z AUTO 21006KT 170V240 9999NDV FEW037 OVC042 07/01 Q1023 RMK

EXPIRED METARs :
  • 100150Z AUTO VRB03KT 9999NDV BKN034 BKN041 OVC049 07/01 Q1023 RMK
  • 100120Z AUTO 04006KT 010V070 9999NDV -SHRA SCT031 BKN037 OVC043 06/02 Q1023 RMK
  • 100050Z AUTO 33005KT 280V030 9999NDV -SHRA BKN034 BKN040 07/02 Q1022 RMK
  • 100020Z AUTO 27006KT 9999NDV -SHRA BKN033 BKN045 BKN055 07/02 Q1022 RMK
  • 092350Z AUTO 27008KT 9999NDV -SHRA BKN034 OVC039 07/02 Q1022 RMK

Expired Forecast.
No reported NOTAMs for that airfield.



MET'MAP, your aeronautical weather chart ! - Copyright ORBIFLY December 2007 - Disclaimer

ORBIFLY MET'MAP TEAM :

Programming & Development : Alexandra Zaïnal
Concept & Development : Baudouin d'Aumeries
Co-Development & Prog : Marc-Olivier Méhu
Technical & hardware support : Manuel Goepfert

Contact : metmap@orbifly.com




SOURCES & CREDITS :

   NOAA